Time;durP1;ratioP1;P1;durP2;ratioP2;P2;SDS_P1;SDS_P2;PMS_P1;PMS_P2;Temp;Humidity;BMP_temperature;BMP_pressure;BME280_temperature;BME280_humidity;BME280_pressure;Samples;Min_cycle;Max_cycle;Signal;HPM_P1;HPM_P2
2022/10/01 00:00:47;;;;;;;0.52;0.20;;;22.90;63.30;;;;;;6109687;28;20046;-53
2022/10/01 00:03:49;;;;;;;0.28;0.28;;;22.80;63.40;;;;;;6115455;28;20109;-54
2022/10/01 00:06:50;;;;;;;0.25;0.20;;;22.80;63.60;;;;;;6113110;28;20085;-56
2022/10/01 00:09:51;;;;;;;;;;;23.10;63.90;;;;;;6118865;28;20042;-55
2022/10/01 00:12:53;;;;;;;0.43;0.10;;;22.80;64.00;;;;;;6113136;28;20056;-56
2022/10/01 00:15:55;;;;;;;;;;;23.00;63.80;;;;;;6108285;28;21072;-54
2022/10/01 00:18:59;;;;;;;0.15;0.10;;;22.80;63.90;;;;;;6110966;28;20725;-56
2022/10/01 00:22:00;;;;;;;0.50;0.30;;;22.90;63.80;;;;;;6112946;28;20979;-54
2022/10/01 00:25:03;;;;;;;0.30;0.30;;;22.90;64.10;;;;;;6114466;28;20226;-56
2022/10/01 00:28:05;;;;;;;0.22;0.20;;;23.10;64.40;;;;;;6113984;28;20125;-55
2022/10/01 00:31:08;;;;;;;0.47;0.20;;;22.50;64.30;;;;;;6108653;28;20185;-55
2022/10/01 00:34:12;;;;;;;0.88;0.20;;;22.60;64.50;;;;;;6114966;28;20058;-56
2022/10/01 00:37:13;;;;;;;0.20;0.20;;;22.80;64.80;;;;;;6111583;28;20050;-56
2022/10/01 00:40:16;;;;;;;0.65;0.50;;;22.70;64.90;;;;;;6111342;28;20065;-56
2022/10/01 00:43:19;;;;;;;0.68;0.22;;;22.90;65.00;;;;;;6111796;28;20042;-56
2022/10/01 00:46:26;;;;;;;0.75;0.50;;;23.00;65.30;;;;;;6107206;28;20095;-56
2022/10/01 00:49:29;;;;;;;0.88;0.32;;;22.70;79.90;;;;;;6110032;28;21290;-55
2022/10/01 00:52:41;;;;;;;0.65;0.20;;;23.00;65.40;;;;;;6111159;28;20043;-56
2022/10/01 00:55:44;;;;;;;0.50;0.20;;;22.50;65.40;;;;;;6107582;28;20281;-53
2022/10/01 00:58:45;;;;;;;0.77;0.30;;;23.10;65.70;;;;;;6102592;28;20046;-52
2022/10/01 01:01:48;;;;;;;1.17;0.40;;;23.00;66.40;;;;;;6106383;28;20956;-55
2022/10/01 01:04:49;;;;;;;0.98;0.43;;;22.90;65.80;;;;;;6106441;28;20038;-57
2022/10/01 01:07:52;;;;;;;;;;;23.10;66.00;;;;;;6108653;28;20050;-57
2022/10/01 01:11:03;;;;;;;0.60;0.30;;;22.80;66.00;;;;;;6114845;28;20080;-56
2022/10/01 01:14:15;;;;;;;1.08;0.40;;;23.00;65.90;;;;;;6114078;28;20110;-56
2022/10/01 01:17:23;;;;;;;0.80;0.40;;;23.00;66.10;;;;;;6113961;28;21000;-53
2022/10/01 01:20:47;;;;;;;0.52;0.28;;;22.80;66.10;;;;;;6109642;28;20053;-56
2022/10/01 01:24:05;;;;;;;0.65;0.38;;;23.10;66.50;;;;;;6112082;28;20162;-55
2022/10/01 01:27:24;;;;;;;0.65;0.30;;;23.10;66.60;;;;;;6100745;28;20047;-57
2022/10/01 01:30:27;;;;;;;0.65;0.30;;;22.60;66.30;;;;;;6108875;28;20062;-56
2022/10/01 01:33:33;;;;;;;1.10;0.40;;;22.70;66.40;;;;;;6107394;28;20105;-55
2022/10/01 01:36:36;;;;;;;1.17;0.50;;;22.70;66.60;;;;;;6100421;28;20177;-56
2022/10/01 01:39:42;;;;;;;0.98;0.52;;;23.00;66.80;;;;;;6111036;28;20134;-55
2022/10/01 01:42:45;;;;;;;1.27;0.40;;;23.00;66.80;;;;;;6112996;28;20057;-54
2022/10/01 01:45:50;;;;;;;1.30;0.50;;;22.90;66.90;;;;;;6114857;28;20130;-56
2022/10/01 01:48:52;;;;;;;0.90;0.50;;;22.40;66.70;;;;;;6115220;28;20046;-56
2022/10/01 01:52:00;;;;;;;1.05;0.40;;;22.60;66.90;;;;;;6118579;28;20059;-56
2022/10/01 01:55:08;;;;;;;1.38;0.40;;;23.00;67.10;;;;;;6112720;28;21018;-57
2022/10/01 01:58:10;;;;;;;0.50;0.20;;;22.60;66.90;;;;;;6109558;28;20043;-56
2022/10/01 02:01:31;;;;;;;0.55;0.25;;;22.60;66.90;;;;;;6110740;28;20827;-54
2022/10/01 02:04:38;;;;;;;1.02;0.30;;;22.90;67.30;;;;;;6115912;28;20726;-56
2022/10/01 02:07:54;;;;;;;0.43;0.28;;;22.70;67.10;;;;;;6114521;28;20880;-57
2022/10/01 02:11:15;;;;;;;0.68;0.22;;;22.60;67.00;;;;;;6112040;28;20046;-55
2022/10/01 02:14:20;;;;;;;;;;;22.70;67.60;;;;;;6109927;28;20131;-56
2022/10/01 02:17:30;;;;;;;1.60;0.40;;;22.60;67.20;;;;;;6113776;28;20000;-56
2022/10/01 02:20:38;;;;;;;1.00;0.38;;;22.80;67.30;;;;;;6118848;28;20050;-56
2022/10/01 02:23:45;;;;;;;0.55;0.20;;;22.80;67.50;;;;;;6113857;28;20789;-57
2022/10/01 02:26:49;;;;;;;0.70;0.20;;;22.40;67.30;;;;;;6112152;28;21009;-55
2022/10/01 02:29:55;;;;;;;1.02;0.40;;;22.50;67.40;;;;;;6111180;28;20047;-57
2022/10/01 02:33:00;;;;;;;0.73;0.28;;;23.00;67.80;;;;;;6106877;28;20181;-56
2022/10/01 02:36:05;;;;;;;0.50;0.30;;;22.70;67.60;;;;;;6110948;28;20051;-55
2022/10/01 02:39:08;;;;;;;1.23;0.20;;;22.60;67.60;;;;;;6108905;28;20817;-56
2022/10/01 02:42:13;;;;;;;0.73;0.28;;;22.90;67.90;;;;;;6110518;28;20142;-56
2022/10/01 02:45:21;;;;;;;0.40;0.20;;;22.60;67.70;;;;;;6108725;28;20843;-56
2022/10/01 02:48:24;;;;;;;0.30;0.20;;;22.60;67.70;;;;;;6104485;28;20230;-54
2022/10/01 02:51:34;;;;;;;0.13;0.10;;;22.30;67.60;;;;;;6109266;28;21050;-55
2022/10/01 02:54:44;;;;;;;0.20;0.10;;;22.30;67.60;;;;;;6112050;28;20036;-56
2022/10/01 02:57:51;;;;;;;0.73;0.30;;;22.20;67.60;;;;;;6114136;28;20996;-56
2022/10/01 03:00:56;;;;;;;0.90;0.40;;;22.40;67.80;;;;;;6113963;28;20890;-54
2022/10/01 03:03:58;;;;;;;0.40;0.20;;;22.70;68.60;;;;;;6109894;28;20074;-57
2022/10/01 03:07:02;;;;;;;0.22;0.15;;;22.90;68.10;;;;;;6113558;28;20053;-53
2022/10/01 03:10:05;;;;;;;0.38;0.20;;;22.40;67.80;;;;;;6115161;28;20176;-56
2022/10/01 03:13:06;;;;;;;0.10;0.10;;;22.90;68.10;;;;;;6133247;28;20812;-54
2022/10/01 03:16:08;;;;;;;0.40;0.20;;;22.70;68.00;;;;;;6116319;28;20031;-57
2022/10/01 03:19:10;;;;;;;0.80;0.20;;;22.50;68.00;;;;;;6118471;28;22044;-56
2022/10/01 03:22:13;;;;;;;0.20;0.10;;;22.50;68.00;;;;;;6112106;28;20057;-57
2022/10/01 03:25:16;;;;;;;0.40;0.30;;;22.50;67.90;;;;;;6111400;28;20406;-57
2022/10/01 03:28:20;;;;;;;0.22;0.10;;;22.60;68.00;;;;;;6114209;28;20043;-58
2022/10/01 03:31:22;;;;;;;0.20;0.13;;;23.10;68.30;;;;;;6115944;28;20046;-55
2022/10/01 03:34:24;;;;;;;0.30;0.10;;;23.00;68.20;;;;;;6122086;28;20135;-54
2022/10/01 03:37:26;;;;;;;0.10;0.10;;;22.80;68.10;;;;;;6120693;28;20740;-55
2022/10/01 03:40:27;;;;;;;0.50;0.10;;;22.60;68.00;;;;;;6114845;28;20185;-55
2022/10/01 03:43:29;;;;;;;0.20;0.20;;;22.60;68.00;;;;;;6116850;28;20078;-57
2022/10/01 03:46:30;;;;;;;;;;;22.90;68.20;;;;;;6115989;28;21191;-57
2022/10/01 03:49:33;;;;;;;0.20;0.10;;;22.60;68.20;;;;;;6112941;28;19976;-55
2022/10/01 03:52:34;;;;;;;0.10;0.10;;;22.60;67.80;;;;;;6116997;28;20048;-53
2022/10/01 03:55:35;;;;;;;;;;;22.50;67.90;;;;;;6118028;28;20887;-56
2022/10/01 03:58:43;;;;;;;0.40;0.13;;;22.80;68.20;;;;;;6111041;28;19930;-55
2022/10/01 04:01:45;;;;;;;0.10;0.10;;;22.40;67.80;;;;;;6115816;28;20051;-57
2022/10/01 04:04:47;;;;;;;0.30;0.13;;;22.70;68.00;;;;;;6116797;28;20041;-55
2022/10/01 04:07:48;;;;;;;0.20;0.10;;;22.80;68.10;;;;;;6123278;28;20043;-55
2022/10/01 04:10:50;;;;;;;0.30;0.10;;;22.70;68.10;;;;;;6121534;28;21008;-56
2022/10/01 04:13:52;;;;;;;0.05;0.05;;;22.40;68.00;;;;;;6118359;28;20047;-56
2022/10/01 04:16:53;;;;;;;0.20;0.20;;;22.90;68.20;;;;;;6109262;28;20055;-57
2022/10/01 04:19:56;;;;;;;;;;;22.60;68.10;;;;;;6113074;28;20047;-57
2022/10/01 04:22:58;;;;;;;0.10;0.10;;;22.40;68.10;;;;;;6111457;28;19946;-54
2022/10/01 04:26:01;;;;;;;0.10;0.10;;;23.00;68.10;;;;;;6111838;28;20031;-56
2022/10/01 04:29:02;;;;;;;0.10;0.10;;;22.50;67.90;;;;;;6108282;28;20675;-55
2022/10/01 04:32:07;;;;;;;0.20;0.10;;;22.40;68.00;;;;;;6105350;28;20117;-56
2022/10/01 04:35:10;;;;;;;0.88;0.20;;;22.60;68.10;;;;;;6109257;28;20074;-54
2022/10/01 04:38:14;;;;;;;0.17;0.15;;;22.60;68.10;;;;;;6109998;28;20910;-56
2022/10/01 04:41:15;;;;;;;0.20;0.20;;;22.60;68.10;;;;;;6110448;28;20922;-54
2022/10/01 04:44:16;;;;;;;;;;;22.80;68.30;;;;;;6107932;28;20255;-55
2022/10/01 04:47:18;;;;;;;0.30;0.30;;;22.80;68.40;;;;;;6106638;28;19925;-56
2022/10/01 04:50:21;;;;;;;;;;;22.70;68.20;;;;;;6102719;28;20048;-54
2022/10/01 04:53:24;;;;;;;0.55;0.30;;;22.80;68.30;;;;;;6105653;28;20846;-56
2022/10/01 04:56:25;;;;;;;0.60;0.25;;;22.50;68.00;;;;;;6109582;28;20043;-55
2022/10/01 04:59:33;;;;;;;0.40;0.20;;;22.70;67.90;;;;;;6109523;28;20043;-57
2022/10/01 05:02:35;;;;;;;0.32;0.22;;;22.40;68.00;;;;;;6107050;28;20149;-55
2022/10/01 05:05:37;;;;;;;0.38;0.20;;;22.70;68.10;;;;;;6107564;28;21910;-56
2022/10/01 05:08:39;;;;;;;0.25;0.20;;;22.70;68.10;;;;;;6109659;28;20064;-55
2022/10/01 05:11:40;;;;;;;;;;;22.80;68.30;;;;;;6113705;28;20049;-56
2022/10/01 05:14:41;;;;;;;0.10;0.10;;;22.50;68.20;;;;;;6116663;28;19933;-56
2022/10/01 05:17:43;;;;;;;;;;;22.40;67.90;;;;;;6108129;28;20126;-57
2022/10/01 05:20:45;;;;;;;0.20;0.10;;;22.40;68.00;;;;;;6101298;28;20861;-57
2022/10/01 05:23:47;;;;;;;0.10;0.10;;;22.20;67.70;;;;;;6102853;28;20201;-57
2022/10/01 05:26:48;;;;;;;0.57;0.20;;;22.90;68.30;;;;;;6104404;28;20045;-56
2022/10/01 05:29:55;;;;;;;0.10;0.10;;;22.40;68.10;;;;;;6108560;28;20153;-55
2022/10/01 05:32:59;;;;;;;0.10;0.10;;;22.10;68.00;;;;;;6108405;28;20047;-57
2022/10/01 05:36:03;;;;;;;0.10;0.10;;;22.50;68.30;;;;;;6105819;28;20059;-56
2022/10/01 05:39:05;;;;;;;0.68;0.20;;;22.80;68.60;;;;;;6104279;28;20089;-57
2022/10/01 05:42:06;;;;;;;0.20;0.10;;;22.50;68.40;;;;;;6105903;28;20047;-56
2022/10/01 05:45:08;;;;;;;;;;;22.40;68.40;;;;;;6107312;28;20968;-55
2022/10/01 05:48:11;;;;;;;0.20;0.10;;;22.60;68.60;;;;;;6102121;28;19932;-57
2022/10/01 05:51:15;;;;;;;0.28;0.10;;;22.20;68.20;;;;;;6103328;28;20043;-57
2022/10/01 05:54:18;;;;;;;0.20;0.20;;;22.50;68.50;;;;;;6099657;28;20985;-55
2022/10/01 05:57:19;;;;;;;0.20;0.20;;;22.60;68.60;;;;;;6108415;28;20141;-55
2022/10/01 06:00:26;;;;;;;0.20;0.10;;;22.70;68.70;;;;;;6101480;28;20696;-57
2022/10/01 06:03:28;;;;;;;0.10;0.10;;;22.70;68.70;;;;;;6106282;28;20051;-57
2022/10/01 06:06:30;;;;;;;0.20;0.10;;;22.70;68.70;;;;;;6111615;28;20089;-58
2022/10/01 06:09:31;;;;;;;0.10;0.10;;;22.50;68.50;;;;;;6113375;28;20862;-57
2022/10/01 06:12:33;;;;;;;;;;;22.50;68.60;;;;;;6107969;28;20051;-55
2022/10/01 06:15:36;;;;;;;0.10;0.10;;;22.50;68.70;;;;;;6113579;28;19926;-56
2022/10/01 06:18:38;;;;;;;0.17;0.10;;;22.40;68.20;;;;;;6112763;28;20071;-57
2022/10/01 06:21:39;;;;;;;;;;;22.40;68.30;;;;;;6109415;28;20115;-56
2022/10/01 06:24:44;;;;;;;0.15;0.15;;;22.80;68.70;;;;;;6107426;28;19930;-56
2022/10/01 06:27:53;;;;;;;0.10;0.10;;;22.60;68.30;;;;;;6112506;28;20109;-57
2022/10/01 06:30:54;;;;;;;0.10;0.10;;;22.80;68.30;;;;;;6108089;28;20043;-53
2022/10/01 06:33:55;;;;;;;;;;;22.80;68.40;;;;;;6106663;28;20046;-56
2022/10/01 06:36:57;;;;;;;0.10;0.00;;;22.70;68.40;;;;;;6109057;28;19926;-56
2022/10/01 06:39:59;;;;;;;0.22;0.20;;;22.90;68.30;;;;;;6111369;28;20047;-58
2022/10/01 06:43:00;;;;;;;0.10;0.05;;;22.80;68.30;;;;;;6112163;28;20836;-57
2022/10/01 06:46:02;;;;;;;;;;;23.00;68.50;;;;;;6113437;28;20148;-57
2022/10/01 06:49:07;;;;;;;0.15;0.10;;;22.60;68.20;;;;;;6104615;28;19976;-56
2022/10/01 06:55:28;;;;;;;0.10;0.10;;;22.80;68.10;;;;;;6116664;28;20173;-55
2022/10/01 06:58:29;;;;;;;0.22;0.20;;;22.80;68.10;;;;;;6118385;28;20066;-57
2022/10/01 07:01:31;;;;;;;0.25;0.22;;;22.50;68.00;;;;;;6110653;28;20162;-57
2022/10/01 07:04:33;;;;;;;0.10;0.10;;;22.80;68.10;;;;;;6110312;28;20134;-56
2022/10/01 07:07:37;;;;;;;0.10;0.10;;;22.90;68.10;;;;;;6115340;28;20078;-56
2022/10/01 07:10:38;;;;;;;0.22;0.17;;;22.80;68.00;;;;;;6117936;28;20034;-53
2022/10/01 07:13:40;;;;;;;0.13;0.13;;;23.20;68.30;;;;;;6118062;28;20154;-58
2022/10/01 07:16:41;;;;;;;;;;;22.70;68.00;;;;;;6117197;28;20149;-56
2022/10/01 07:19:43;;;;;;;0.10;0.05;;;22.30;67.90;;;;;;6114265;28;19945;-55
2022/10/01 07:22:46;;;;;;;0.63;0.20;;;22.90;68.00;;;;;;6117548;28;20157;-55
2022/10/01 07:25:47;;;;;;;0.10;0.10;;;22.40;67.60;;;;;;6118123;28;20217;-57
2022/10/01 07:28:48;;;;;;;;;;;23.00;68.00;;;;;;6112566;28;20042;-56
2022/10/01 07:31:55;;;;;;;0.10;0.10;;;22.60;67.80;;;;;;6115446;28;20796;-56
2022/10/01 07:34:57;;;;;;;0.20;0.13;;;22.60;67.50;;;;;;6111849;28;20085;-57
2022/10/01 07:38:06;;;;;;;0.30;0.17;;;23.00;67.70;;;;;;6109738;28;20047;-55
2022/10/01 07:41:08;;;;;;;0.10;0.10;;;22.60;67.30;;;;;;6111393;28;20043;-54
2022/10/01 07:44:10;;;;;;;0.20;0.13;;;22.70;67.20;;;;;;6108222;28;20054;-57
2022/10/01 07:47:12;;;;;;;0.20;0.10;;;23.00;67.20;;;;;;6111572;28;20125;-57
2022/10/01 07:50:13;;;;;;;;;;;22.90;67.00;;;;;;6112206;28;20050;-57
2022/10/01 07:53:15;;;;;;;0.30;0.10;;;23.10;67.10;;;;;;6109404;28;20413;-56
2022/10/01 07:56:16;;;;;;;0.20;0.20;;;22.80;66.70;;;;;;6110317;28;20066;-57
2022/10/01 07:59:18;;;;;;;0.10;0.10;;;22.90;66.50;;;;;;6109540;28;20047;-56
2022/10/01 08:02:19;;;;;;;0.10;0.10;;;22.90;66.40;;;;;;6110800;28;20846;-57
2022/10/01 08:05:27;;;;;;;0.20;0.10;;;23.10;66.20;;;;;;6110872;28;20063;-58
2022/10/01 08:08:30;;;;;;;0.28;0.10;;;22.70;65.80;;;;;;6092409;28;20047;-57
2022/10/01 08:11:32;;;;;;;0.10;0.10;;;22.80;65.80;;;;;;6107881;28;20031;-57
2022/10/01 08:14:34;;;;;;;0.20;0.20;;;22.70;65.40;;;;;;6105167;28;20836;-57
2022/10/01 08:17:36;;;;;;;0.20;0.10;;;23.10;65.60;;;;;;6107864;28;20070;-57
2022/10/01 08:20:38;;;;;;;0.57;0.20;;;23.00;65.30;;;;;;6106441;28;20042;-56
2022/10/01 08:23:40;;;;;;;0.10;0.10;;;23.10;65.20;;;;;;6107021;28;20954;-52
2022/10/01 08:26:41;;;;;;;0.10;0.10;;;22.70;64.90;;;;;;6104576;28;20056;-56
2022/10/01 08:29:43;;;;;;;;;;;22.70;64.90;;;;;;6106586;28;20039;-54
2022/10/01 08:32:44;;;;;;;0.35;0.20;;;23.00;65.30;;;;;;6109227;28;20377;-56
2022/10/01 08:35:46;;;;;;;0.45;0.10;;;22.50;64.60;;;;;;6112334;28;20150;-57
2022/10/01 08:38:48;;;;;;;0.30;0.10;;;22.90;64.60;;;;;;6112779;28;20908;-55
2022/10/01 08:41:58;;;;;;;0.20;0.20;;;22.90;64.50;;;;;;6109342;28;20045;-55
2022/10/01 08:45:04;;;;;;;0.35;0.25;;;23.20;64.50;;;;;;6104024;28;20169;-55
2022/10/01 08:48:15;;;;;;;0.40;0.20;;;22.90;64.20;;;;;;6109017;28;20051;-54
2022/10/01 08:51:26;;;;;;;0.10;0.10;;;23.10;64.20;;;;;;6108851;28;20128;-55
2022/10/01 08:54:36;;;;;;;0.20;0.10;;;23.10;64.20;;;;;;6103328;28;20154;-54
2022/10/01 08:57:42;;;;;;;0.45;0.30;;;23.00;64.00;;;;;;6103189;28;20106;-55
2022/10/01 09:00:46;;;;;;;0.20;0.20;;;23.10;64.00;;;;;;6100218;28;20038;-53
2022/10/01 09:03:49;;;;;;;0.40;0.20;;;22.80;63.70;;;;;;6100485;28;21576;-56
2022/10/01 09:06:57;;;;;;;0.22;0.20;;;23.20;63.80;;;;;;6099127;28;20051;-56
2022/10/01 09:10:20;;;;;;;0.40;0.20;;;23.20;63.60;;;;;;6097967;28;20038;-54
2022/10/01 09:13:45;;;;;;;0.30;0.10;;;23.00;63.40;;;;;;6102295;28;20198;-57
2022/10/01 09:16:59;;;;;;;0.13;0.10;;;23.00;63.40;;;;;;6101604;28;22148;-56
2022/10/01 09:20:11;;;;;;;0.25;0.20;;;23.10;63.40;;;;;;6099551;28;20085;-55
2022/10/01 09:23:23;;;;;;;0.30;0.20;;;22.80;63.20;;;;;;6107263;28;20053;-55
2022/10/01 09:26:25;;;;;;;0.57;0.20;;;23.20;63.40;;;;;;6105547;28;20046;-57
2022/10/01 09:29:39;;;;;;;0.60;0.20;;;23.20;63.30;;;;;;6107216;28;20047;-56
2022/10/01 09:32:44;;;;;;;0.52;0.30;;;23.10;63.20;;;;;;6123374;28;20066;-54
2022/10/01 09:35:51;;;;;;;0.22;0.20;;;23.10;63.10;;;;;;6104168;28;20263;-55
2022/10/01 09:39:01;;;;;;;0.30;0.20;;;22.90;62.90;;;;;;6099074;28;20090;-56
2022/10/01 09:42:05;;;;;;;0.47;0.30;;;22.90;62.90;;;;;;6098811;28;20074;-55
2022/10/01 09:45:10;;;;;;;0.57;0.20;;;23.00;62.90;;;;;;6104561;28;20162;-54
2022/10/01 09:48:19;;;;;;;0.22;0.10;;;24.00;63.40;;;;;;6108140;28;22104;-56
2022/10/01 09:51:24;;;;;;;0.28;0.20;;;22.90;62.90;;;;;;6105150;28;20158;-57
2022/10/01 09:54:32;;;;;;;0.17;0.17;;;22.60;62.70;;;;;;6106039;28;20165;-57
2022/10/01 09:57:38;;;;;;;0.20;0.10;;;23.00;63.00;;;;;;6101725;28;20053;-57
2022/10/01 10:00:42;;;;;;;0.20;0.17;;;23.10;63.00;;;;;;6107431;28;20100;-57
2022/10/01 10:03:53;;;;;;;0.40;0.20;;;23.20;63.00;;;;;;6112410;28;20605;-57
2022/10/01 10:07:00;;;;;;;0.10;0.10;;;23.20;63.00;;;;;;6109425;28;20931;-57
2022/10/01 10:10:17;;;;;;;0.20;0.20;;;22.90;62.90;;;;;;6089052;28;20195;-56
2022/10/01 10:13:30;;;;;;;0.15;0.10;;;22.90;62.90;;;;;;6104144;28;20053;-57
2022/10/01 10:16:34;;;;;;;0.40;0.20;;;23.20;63.00;;;;;;6105322;28;20070;-57
2022/10/01 10:19:36;;;;;;;0.40;0.20;;;23.20;63.00;;;;;;6106826;28;20043;-56
2022/10/01 10:22:38;;;;;;;0.80;0.10;;;23.10;63.00;;;;;;6112988;28;20047;-57
2022/10/01 10:25:39;;;;;;;0.93;0.28;;;23.40;63.00;;;;;;6112113;28;20070;-57
2022/10/01 10:28:44;;;;;;;0.40;0.20;;;23.00;62.80;;;;;;6115584;28;20145;-55
2022/10/01 10:31:48;;;;;;;0.20;0.13;;;23.00;62.60;;;;;;6107367;28;20047;-57
2022/10/01 10:34:52;;;;;;;0.47;0.20;;;23.00;62.50;;;;;;6113699;28;20158;-57
2022/10/01 10:37:56;;;;;;;0.45;0.10;;;22.80;62.30;;;;;;6113935;28;20039;-56
2022/10/01 10:40:57;;;;;;;0.35;0.20;;;23.30;62.50;;;;;;6116550;28;20047;-57
2022/10/01 10:44:03;;;;;;;0.10;0.10;;;23.40;62.50;;;;;;6115313;28;21495;-55
2022/10/01 10:47:08;;;;;;;0.20;0.20;;;23.30;62.40;;;;;;6094220;28;20051;-56
2022/10/01 10:50:28;;;;;;;0.47;0.20;;;23.40;62.30;;;;;;6113706;28;20963;-57
2022/10/01 10:53:39;;;;;;;0.13;0.10;;;23.00;62.50;;;;;;6112083;28;21240;-57
2022/10/01 10:56:50;;;;;;;0.70;0.20;;;23.30;62.00;;;;;;6111357;28;20078;-57
2022/10/01 10:59:58;;;;;;;0.32;0.10;;;23.00;61.70;;;;;;6115885;28;20074;-55
2022/10/01 11:03:03;;;;;;;0.28;0.10;;;23.10;61.60;;;;;;6112294;28;20043;-56
2022/10/01 11:06:10;;;;;;;0.35;0.10;;;23.00;61.40;;;;;;6127520;28;20101;-57
2022/10/01 11:09:17;;;;;;;0.22;0.20;;;23.30;61.50;;;;;;6111272;28;20047;-53
2022/10/01 11:12:33;;;;;;;0.80;0.22;;;23.00;61.20;;;;;;6118086;28;20038;-57
2022/10/01 11:15:47;;;;;;;0.20;0.20;;;23.30;61.20;;;;;;6112551;28;20133;-54
2022/10/01 11:19:02;;;;;;;0.30;0.20;;;23.50;61.20;;;;;;6110639;28;20049;-56
2022/10/01 11:22:24;;;;;;;0.30;0.20;;;23.40;61.10;;;;;;6105234;28;20039;-56
2022/10/01 11:25:40;;;;;;;0.70;0.10;;;23.10;60.80;;;;;;6110647;28;20043;-56
2022/10/01 11:28:53;;;;;;;0.32;0.20;;;23.40;61.00;;;;;;6108913;28;20201;-57
2022/10/01 11:32:04;;;;;;;0.20;0.20;;;23.20;60.80;;;;;;6109037;28;20043;-57
2022/10/01 11:35:21;;;;;;;0.32;0.15;;;23.10;60.70;;;;;;6113520;28;20166;-55
2022/10/01 11:38:37;;;;;;;0.20;0.10;;;23.80;61.10;;;;;;6111238;28;20228;-55
2022/10/01 11:41:46;;;;;;;0.38;0.30;;;23.30;60.70;;;;;;6110341;28;21007;-56
2022/10/01 11:44:55;;;;;;;0.32;0.30;;;23.20;60.70;;;;;;6108713;28;20149;-57
2022/10/01 11:48:09;;;;;;;0.55;0.30;;;23.40;60.70;;;;;;6111017;28;20050;-58
2022/10/01 11:51:14;;;;;;;0.47;0.40;;;23.10;60.50;;;;;;6110406;28;20371;-55
2022/10/01 11:54:24;;;;;;;0.10;0.10;;;23.40;60.60;;;;;;6108787;28;20122;-56
2022/10/01 12:00:49;;;;;;;0.40;0.20;;;23.50;60.60;;;;;;6116007;28;20093;-56
2022/10/01 12:04:03;;;;;;;0.60;0.30;;;23.40;60.40;;;;;;6113360;28;21000;-54
2022/10/01 12:07:12;;;;;;;0.57;0.30;;;23.10;60.10;;;;;;6111947;28;20047;-56
2022/10/01 12:10:27;;;;;;;0.10;0.10;;;23.20;60.10;;;;;;6110005;28;20046;-54
2022/10/01 12:13:32;;;;;;;0.55;0.20;;;23.60;60.30;;;;;;6115657;28;20145;-54
2022/10/01 12:16:43;;;;;;;0.30;0.30;;;23.50;60.20;;;;;;6099342;28;20070;-53
2022/10/01 12:19:51;;;;;;;;;;;23.60;60.10;;;;;;6108444;28;20050;-56
2022/10/01 12:22:53;;;;;;;0.10;0.10;;;23.50;60.10;;;;;;6109029;28;20282;-57
2022/10/01 12:26:02;;;;;;;0.43;0.20;;;23.60;60.10;;;;;;6106222;28;20051;-57
2022/10/01 12:29:12;;;;;;;0.47;0.10;;;23.00;59.60;;;;;;6103781;28;20050;-57
2022/10/01 12:32:24;;;;;;;0.45;0.30;;;23.50;59.70;;;;;;6102745;28;20182;-57
2022/10/01 12:35:41;;;;;;;0.75;0.28;;;23.40;59.60;;;;;;6103188;28;20045;-55
2022/10/01 12:38:57;;;;;;;0.85;0.32;;;23.50;59.50;;;;;;6100649;28;20075;-55
2022/10/01 12:42:13;;;;;;;0.30;0.30;;;23.30;59.20;;;;;;6102461;28;20058;-56
2022/10/01 12:45:27;;;;;;;0.63;0.30;;;23.60;59.20;;;;;;6117230;28;20377;-55
2022/10/01 12:48:36;;;;;;;0.60;0.30;;;23.20;58.90;;;;;;6101696;28;21048;-55
2022/10/01 12:51:42;;;;;;;0.32;0.20;;;23.70;59.10;;;;;;6096266;28;20046;-57
2022/10/01 12:54:55;;;;;;;0.55;0.30;;;23.40;58.80;;;;;;6076729;28;20054;-56
2022/10/01 12:58:06;;;;;;;0.30;0.20;;;23.60;58.80;;;;;;6099009;28;20820;-55
2022/10/01 13:01:15;;;;;;;1.33;0.40;;;23.60;58.60;;;;;;6103588;28;20069;-55
2022/10/01 13:04:32;;;;;;;0.70;0.30;;;23.70;58.50;;;;;;6098852;28;20046;-56
2022/10/01 13:07:47;;;;;;;0.38;0.30;;;23.50;58.30;;;;;;6094030;28;20051;-55
2022/10/01 13:10:58;;;;;;;0.85;0.30;;;23.60;58.20;;;;;;6102345;28;20035;-56
2022/10/01 13:14:02;;;;;;;0.37;0.20;;;23.60;58.10;;;;;;6101471;28;20370;-54
2022/10/01 13:17:11;;;;;;;0.73;0.20;;;23.70;58.10;;;;;;6098266;28;20296;-54
2022/10/01 13:20:22;;;;;;;0.50;0.25;;;23.50;57.70;;;;;;6093732;28;20889;-53
2022/10/01 13:23:30;;;;;;;;;;;23.50;57.70;;;;;;6104860;28;20039;-57
2022/10/01 13:26:40;;;;;;;0.25;0.20;;;23.70;57.80;;;;;;6091592;28;19947;-57
2022/10/01 13:29:50;;;;;;;0.47;0.30;;;23.50;57.50;;;;;;6096609;28;20055;-57
2022/10/01 13:32:54;;;;;;;0.20;0.20;;;23.30;57.10;;;;;;6099088;28;20136;-56
2022/10/01 13:35:57;;;;;;;1.02;0.20;;;23.40;56.90;;;;;;6085967;28;21084;-55
2022/10/01 13:39:00;;;;;;;0.38;0.20;;;23.60;56.70;;;;;;6099240;28;21137;-54
2022/10/01 13:42:05;;;;;;;0.52;0.30;;;23.50;56.30;;;;;;6088043;28;21147;-55
2022/10/01 13:45:20;;;;;;;0.20;0.10;;;23.60;55.90;;;;;;6093455;28;20057;-53
2022/10/01 13:48:23;;;;;;;0.52;0.20;;;23.60;55.70;;;;;;6096162;28;20180;-52
2022/10/01 13:51:35;;;;;;;0.40;0.20;;;23.70;55.40;;;;;;6099040;28;20047;-57
2022/10/01 13:54:39;;;;;;;0.47;0.28;;;23.70;55.10;;;;;;6094637;28;20833;-56
2022/10/01 13:57:41;;;;;;;1.38;0.22;;;23.60;55.10;;;;;;6081696;28;20185;-54
2022/10/01 14:00:47;;;;;;;0.30;0.20;;;23.80;55.10;;;;;;6089925;28;20561;-56
2022/10/01 14:03:54;;;;;;;0.75;0.20;;;23.80;55.60;;;;;;6096576;28;20859;-54
2022/10/01 14:07:00;;;;;;;0.68;0.32;;;23.50;54.80;;;;;;6099813;28;20078;-57
2022/10/01 14:10:02;;;;;;;0.60;0.30;;;23.80;55.10;;;;;;6092734;28;20917;-57
2022/10/01 14:16:22;;;;;;;0.35;0.20;;;24.10;55.10;;;;;;6089735;28;20054;-55
2022/10/01 14:19:26;;;;;;;0.20;0.10;;;23.70;55.00;;;;;;6092803;28;20049;-56
2022/10/01 14:22:40;;;;;;;0.98;0.30;;;24.00;55.10;;;;;;6094212;28;20116;-55
2022/10/01 14:25:51;;;;;;;0.63;0.20;;;23.80;54.90;;;;;;6100619;28;20190;-56
2022/10/01 14:29:06;;;;;;;0.63;0.28;;;23.50;54.60;;;;;;6095875;28;20971;-57
2022/10/01 14:32:19;;;;;;;0.30;0.20;;;23.70;54.60;;;;;;6100756;28;20054;-54
2022/10/01 14:35:29;;;;;;;0.68;0.30;;;24.00;54.70;;;;;;6093358;28;20168;-54
2022/10/01 14:38:34;;;;;;;0.30;0.20;;;23.70;54.50;;;;;;6095316;28;20083;-57
2022/10/01 14:41:36;;;;;;;0.85;0.30;;;23.60;54.40;;;;;;6093615;28;20162;-56
2022/10/01 14:44:40;;;;;;;0.30;0.13;;;23.90;54.40;;;;;;6093213;28;20113;-55
2022/10/01 14:47:42;;;;;;;0.70;0.20;;;23.80;54.20;;;;;;6091402;28;20039;-57
2022/10/01 14:50:48;;;;;;;0.30;0.10;;;23.50;54.00;;;;;;6091884;28;20687;-56
2022/10/01 14:53:52;;;;;;;0.73;0.32;;;23.60;53.80;;;;;;6084154;28;20055;-55
2022/10/01 14:56:54;;;;;;;0.77;0.30;;;23.90;53.90;;;;;;6095493;28;20138;-57
2022/10/01 14:59:57;;;;;;;0.28;0.17;;;23.70;53.60;;;;;;6089028;28;20900;-56
2022/10/01 15:03:11;;;;;;;0.28;0.15;;;23.50;53.20;;;;;;6091421;28;20125;-57
2022/10/01 15:06:14;;;;;;;0.50;0.30;;;23.60;52.90;;;;;;6088277;28;20061;-55
2022/10/01 15:09:17;;;;;;;0.30;0.20;;;23.80;52.90;;;;;;6095312;28;20046;-57
2022/10/01 15:12:21;;;;;;;1.08;0.20;;;23.90;52.70;;;;;;6096882;28;20035;-55
2022/10/01 15:15:28;;;;;;;0.32;0.20;;;23.80;52.40;;;;;;6115482;28;21010;-56
2022/10/01 15:18:30;;;;;;;1.02;0.30;;;24.10;52.20;;;;;;6098585;28;20051;-54
2022/10/01 15:21:36;;;;;;;0.90;0.30;;;23.90;51.90;;;;;;6093297;28;20043;-55
2022/10/01 15:24:41;;;;;;;0.22;0.20;;;23.90;51.70;;;;;;6098305;28;20094;-56
2022/10/01 15:27:43;;;;;;;0.50;0.20;;;24.00;51.60;;;;;;6096059;28;20042;-55
2022/10/01 15:30:45;;;;;;;0.30;0.20;;;24.10;51.50;;;;;;6093742;28;20042;-55
2022/10/01 15:33:47;;;;;;;0.57;0.30;;;23.80;51.20;;;;;;6098174;28;20213;-55
2022/10/01 15:36:49;;;;;;;0.45;0.30;;;23.70;50.90;;;;;;6102298;28;20180;-55
2022/10/01 15:39:52;;;;;;;0.45;0.20;;;23.70;50.80;;;;;;6098742;28;20699;-56
2022/10/01 15:43:11;;;;;;;0.52;0.30;;;23.80;50.70;;;;;;6104526;28;20051;-57
2022/10/01 15:46:25;;;;;;;0.55;0.20;;;24.00;50.60;;;;;;6098559;28;20117;-53
2022/10/01 15:49:27;;;;;;;0.65;0.30;;;23.90;64.10;;;;;;6103471;28;20114;-56
2022/10/01 15:55:51;;;;;;;0.40;0.20;;;23.90;50.70;;;;;;6101780;28;20082;-55
2022/10/01 15:58:57;;;;;;;0.30;0.20;;;23.80;50.80;;;;;;6100683;28;20786;-57
2022/10/01 16:01:59;;;;;;;0.70;0.20;;;24.00;51.00;;;;;;6094128;28;20054;-55
2022/10/01 16:05:04;;;;;;;0.45;0.30;;;23.70;50.90;;;;;;6102295;28;20054;-56
2022/10/01 16:08:05;;;;;;;0.47;0.20;;;23.80;51.00;;;;;;6101872;28;20046;-57
2022/10/01 16:11:17;;;;;;;0.28;0.20;;;23.70;51.00;;;;;;6097351;28;20043;-56
2022/10/01 16:14:29;;;;;;;0.93;0.20;;;24.00;51.30;;;;;;6093378;28;20979;-55
2022/10/01 16:17:33;;;;;;;0.60;0.35;;;23.80;51.30;;;;;;6094863;28;20050;-57
2022/10/01 16:20:38;;;;;;;0.17;0.15;;;24.10;51.60;;;;;;6091014;28;20053;-56
2022/10/01 16:23:41;;;;;;;0.43;0.25;;;23.80;51.50;;;;;;6089958;28;21244;-55
2022/10/01 16:26:44;;;;;;;0.40;0.30;;;23.80;51.60;;;;;;6103987;28;20051;-52